Time;durP1;ratioP1;P1;durP2;ratioP2;P2;SDS_P1;SDS_P2;PMS_P1;PMS_P2;Temp;Humidity;BMP_temperature;BMP_pressure;BME280_temperature;BME280_humidity;BME280_pressure;Samples;Min_cycle;Max_cycle;Signal;HPM_P1;HPM_P2
2023/10/13 00:01:51;;;;;;;10.13;5.87;;;14.40;99.90;;;;;;8397345;28;20425;-65
2023/10/13 00:05:58;;;;;;;12.97;7.00;;;14.40;99.90;;;;;;8403947;28;20263;-63
2023/10/13 00:09:59;;;;;;;8.53;6.00;;;14.40;99.90;;;;;;8399447;28;20216;-63
2023/10/13 00:14:03;;;;;;;9.70;6.47;;;14.40;99.90;;;;;;8400822;28;20216;-65
2023/10/13 00:18:12;;;;;;;10.93;6.37;;;14.40;99.90;;;;;;8398675;28;20279;-64
2023/10/13 00:22:16;;;;;;;8.67;6.53;;;14.40;99.90;;;;;;8401707;28;20181;-62
2023/10/13 00:26:18;;;;;;;10.13;6.73;;;14.40;99.90;;;;;;8405164;28;20187;-63
2023/10/13 00:30:34;;;;;;;9.60;6.30;;;14.40;99.90;;;;;;8401811;28;20253;-65
2023/10/13 00:34:37;;;;;;;10.77;7.03;;;14.30;99.90;;;;;;8401600;28;20400;-62
2023/10/13 00:38:38;;;;;;;8.43;6.30;;;14.30;99.90;;;;;;8402359;28;20181;-64
2023/10/13 00:42:51;;;;;;;11.93;7.20;;;14.40;99.90;;;;;;8401452;28;20184;-63
2023/10/13 00:46:56;;;;;;;10.80;7.23;;;14.40;99.90;;;;;;8402233;28;20207;-64
2023/10/13 00:51:18;;;;;;;10.80;7.57;;;14.40;99.90;;;;;;8404164;28;20188;-67
2023/10/13 00:55:33;;;;;;;10.00;6.93;;;14.40;99.90;;;;;;8423825;28;20195;-67
2023/10/13 00:59:37;;;;;;;13.77;7.10;;;14.40;99.90;;;;;;8428018;28;20208;-67
2023/10/13 01:04:02;;;;;;;9.43;6.03;;;14.40;99.90;;;;;;8426329;28;20192;-67
2023/10/13 01:08:10;;;;;;;11.93;6.97;;;14.40;99.90;;;;;;8420831;28;20185;-67
2023/10/13 01:12:18;;;;;;;11.50;7.10;;;14.30;99.90;;;;;;8413146;28;20204;-67
2023/10/13 01:16:23;;;;;;;8.60;6.47;;;14.30;99.90;;;;;;8428310;28;20249;-67
2023/10/13 01:20:38;;;;;;;8.83;6.33;;;14.20;99.90;;;;;;8428877;28;20189;-66
2023/10/13 01:24:39;;;;;;;10.83;7.10;;;14.10;99.90;;;;;;8428388;28;20242;-67
2023/10/13 01:29:00;;;;;;;12.37;7.37;;;14.00;99.90;;;;;;8430440;28;20184;-67
2023/10/13 01:33:46;;;;;;;12.40;8.07;;;13.90;99.90;;;;;;8431786;28;20219;-65
2023/10/13 01:38:42;;;;;;;8.77;6.23;;;13.90;99.90;;;;;;8430724;28;20180;-67
2023/10/13 01:43:10;;;;;;;7.80;6.03;;;13.80;99.90;;;;;;8429212;28;20184;-67
2023/10/13 01:47:23;;;;;;;7.37;6.00;;;13.80;99.90;;;;;;8427088;28;20249;-67
2023/10/13 01:51:29;;;;;;;8.00;5.70;;;13.80;99.90;;;;;;8427999;28;20213;-67
2023/10/13 01:55:30;;;;;;;11.30;6.30;;;13.80;99.90;;;;;;8425956;28;20204;-67
2023/10/13 01:59:50;;;;;;;11.80;7.27;;;13.80;99.90;;;;;;8419189;28;20209;-67
2023/10/13 02:04:07;;;;;;;9.23;6.50;;;13.90;99.90;;;;;;8421672;28;20189;-67
2023/10/13 02:08:43;;;;;;;7.50;6.47;;;13.90;99.90;;;;;;8428126;28;20183;-66
2023/10/13 02:13:17;;;;;;;9.00;6.80;;;13.80;99.90;;;;;;8420870;28;20187;-67
2023/10/13 02:17:41;;;;;;;8.97;7.10;;;13.70;99.90;;;;;;8429250;28;20256;-67
2023/10/13 02:22:02;;;;;;;8.60;6.47;;;13.60;99.90;;;;;;8427186;28;20180;-67
2023/10/13 02:26:15;;;;;;;9.93;6.27;;;13.50;99.90;;;;;;8426310;28;20164;-67
2023/10/13 02:30:23;;;;;;;8.90;6.67;;;13.30;99.90;;;;;;8427119;28;20176;-67
2023/10/13 02:34:24;;;;;;;8.33;5.83;;;13.10;99.90;;;;;;8425291;28;20200;-67
2023/10/13 02:38:47;;;;;;;7.93;6.43;;;13.00;99.90;;;;;;8424787;28;20176;-66
2023/10/13 02:42:50;;;;;;;8.37;6.80;;;12.90;99.90;;;;;;8423016;28;20176;-67
2023/10/13 02:46:55;;;;;;;8.63;7.03;;;12.80;99.90;;;;;;8418778;28;20184;-68
2023/10/13 02:51:06;;;;;;;10.03;7.27;;;12.70;99.90;;;;;;8418296;28;20212;-68
2023/10/13 02:55:16;;;;;;;8.40;6.13;;;12.70;99.90;;;;;;8425651;28;20204;-68
2023/10/13 02:59:34;;;;;;;7.77;6.97;;;12.60;99.90;;;;;;8432941;28;20192;-67
2023/10/13 03:03:58;;;;;;;8.17;6.43;;;12.60;99.90;;;;;;8414455;28;20235;-67
2023/10/13 03:08:03;;;;;;;9.07;7.00;;;12.50;99.90;;;;;;8407916;28;20191;-67
2023/10/13 03:12:10;;;;;;;9.67;7.87;;;12.60;99.90;;;;;;8396852;28;20176;-67
2023/10/13 03:16:17;;;;;;;11.00;7.73;;;12.70;99.90;;;;;;8397373;28;20221;-67
2023/10/13 03:20:31;;;;;;;14.47;8.93;;;12.90;99.90;;;;;;8397684;28;20176;-67
2023/10/13 03:24:46;;;;;;;10.67;7.20;;;13.00;99.90;;;;;;8396421;28;20169;-67
2023/10/13 03:28:57;;;;;;;10.20;8.00;;;13.10;99.90;;;;;;8396155;28;20200;-67
2023/10/13 03:33:06;;;;;;;8.27;7.10;;;13.20;99.90;;;;;;8379612;28;20169;-67
2023/10/13 03:37:17;;;;;;;13.07;8.40;;;13.30;99.90;;;;;;8416478;28;20185;-66
2023/10/13 03:41:30;;;;;;;11.17;8.57;;;13.40;99.90;;;;;;8429879;28;20204;-67
2023/10/13 03:45:47;;;;;;;11.50;8.50;;;13.40;99.90;;;;;;8422141;28;20196;-67
2023/10/13 03:49:51;;;;;;;9.80;7.57;;;13.50;99.90;;;;;;8420373;28;20207;-66
2023/10/13 03:53:58;;;;;;;12.47;8.30;;;13.40;99.90;;;;;;8412217;28;20213;-67
2023/10/13 03:58:04;;;;;;;10.43;8.00;;;13.30;99.90;;;;;;8396571;28;20302;-67
2023/10/13 04:02:18;;;;;;;14.10;8.40;;;13.30;99.90;;;;;;8411993;28;20269;-67
2023/10/13 04:15:23;;;;;;;9.93;7.57;;;13.50;99.90;;;;;;8433304;28;20201;-67
2023/10/13 04:19:26;;;;;;;12.67;8.20;;;13.50;99.90;;;;;;8429126;28;20181;-67
2023/10/13 04:24:08;;;;;;;9.17;7.10;;;13.60;99.90;;;;;;8430522;28;20180;-68
2023/10/13 04:33:05;;;;;;;10.93;7.97;;;13.60;99.90;;;;;;8429860;28;20181;-67
2023/10/13 04:37:22;;;;;;;11.10;7.80;;;13.50;99.90;;;;;;8424302;28;20212;-67
2023/10/13 04:41:42;;;;;;;9.93;7.03;;;13.60;99.90;;;;;;8430433;28;20174;-67
2023/10/13 04:45:54;;;;;;;11.37;7.90;;;13.60;99.90;;;;;;8428900;28;20397;-67
2023/10/13 04:50:13;;;;;;;13.40;8.40;;;13.70;99.90;;;;;;8427505;28;20252;-66
2023/10/13 04:54:25;;;;;;;10.20;7.57;;;13.70;99.90;;;;;;8400577;28;20338;-64
2023/10/13 05:50:04;;;;;;;9.10;6.47;;;13.90;99.90;;;;;;8397449;28;20204;-68
2023/10/13 06:28:41;;;;;;;9.90;8.10;;;13.90;99.90;;;;;;8411713;28;20243;-68
2023/10/13 06:32:46;;;;;;;9.73;7.87;;;14.00;99.90;;;;;;8408908;28;21416;-69
2023/10/13 06:36:48;;;;;;;9.50;7.23;;;14.20;99.90;;;;;;8399556;28;20213;-67
2023/10/13 06:40:51;;;;;;;11.63;7.63;;;14.30;99.90;;;;;;8395199;28;20212;-68
2023/10/13 06:44:56;;;;;;;11.40;7.20;;;14.40;99.90;;;;;;8402612;28;20203;-68
2023/10/13 06:49:02;;;;;;;8.93;7.47;;;14.60;99.90;;;;;;8405510;28;20261;-68
2023/10/13 06:53:03;;;;;;;10.20;6.83;;;14.80;99.90;;;;;;8408064;28;20260;-68
2023/10/13 06:57:06;;;;;;;8.00;6.40;;;14.90;99.90;;;;;;8406777;28;20294;-68
2023/10/13 07:01:07;;;;;;;10.37;6.67;;;15.20;99.90;;;;;;8402555;28;20208;-66
2023/10/13 07:05:14;;;;;;;9.27;6.67;;;15.60;99.90;;;;;;8405844;28;20295;-68
2023/10/13 07:13:47;;;;;;;7.93;5.27;;;16.20;99.90;;;;;;8399236;28;20195;-69
2023/10/13 07:17:55;;;;;;;5.47;4.90;;;16.30;99.90;;;;;;8410947;28;20246;-69
2023/10/13 07:22:20;;;;;;;6.70;4.70;;;16.60;99.90;;;;;;8408938;28;20277;-69
2023/10/13 07:26:23;;;;;;;6.13;4.90;;;17.00;99.90;;;;;;8412939;28;20275;-70
2023/10/13 07:30:26;;;;;;;8.03;5.67;;;17.40;99.90;;;;;;8406348;28;20193;-71
2023/10/13 07:34:31;;;;;;;5.30;4.00;;;17.70;99.90;;;;;;8411097;28;20204;-70
2023/10/13 07:38:37;;;;;;;5.50;4.53;;;17.90;99.90;;;;;;8406834;28;21656;-70
2023/10/13 07:42:43;;;;;;;5.03;4.10;;;18.10;99.90;;;;;;8409208;28;20218;-68
2023/10/13 07:46:46;;;;;;;6.87;4.93;;;18.30;99.90;;;;;;8408094;28;20196;-71
2023/10/13 07:50:58;;;;;;;5.87;4.43;;;18.40;99.90;;;;;;8411546;28;20203;-70
2023/10/13 07:55:11;;;;;;;5.90;4.43;;;18.40;68.40;;;;;;8406814;28;20207;-70
2023/10/13 07:59:14;;;;;;;7.13;3.87;;;18.50;1.00;;;;;;8413492;28;20205;-70
2023/10/13 08:07:27;;;;;;;6.70;4.20;;;18.70;1.00;;;;;;8413663;28;20185;-69
2023/10/13 08:11:31;;;;;;;6.20;4.10;;;18.80;1.00;;;;;;8408428;28;20181;-69
2023/10/13 08:15:32;;;;;;;4.50;3.57;;;19.00;1.00;;;;;;8413402;28;20521;-70
2023/10/13 08:19:44;;;;;;;6.87;4.23;;;19.30;1.00;;;;;;8408590;28;20184;-70
2023/10/13 08:32:14;;;;;;;6.13;4.33;;;19.70;1.00;;;;;;8403777;28;20200;-66
2023/10/13 08:36:27;;;;;;;5.00;4.30;;;19.70;1.00;;;;;;8397757;28;20217;-68
2023/10/13 08:40:55;;;;;;;3.97;3.50;;;19.70;1.00;;;;;;8397011;28;20181;-65
2023/10/13 08:45:03;;;;;;;5.60;4.03;;;19.80;1.00;;;;;;8399751;28;20192;-68
2023/10/13 08:49:17;;;;;;;4.43;3.63;;;20.20;1.00;;;;;;8400612;28;20188;-67
2023/10/13 08:53:31;;;;;;;6.13;3.63;;;20.60;1.00;;;;;;8399760;28;20200;-68
2023/10/13 08:57:35;;;;;;;3.83;3.53;;;20.70;1.00;;;;;;8399024;28;20185;-68
2023/10/13 09:01:45;;;;;;;4.63;3.77;;;20.50;1.00;;;;;;8398764;28;20509;-66
2023/10/13 09:06:01;;;;;;;5.27;3.93;;;20.20;1.00;;;;;;8401072;28;20192;-67
2023/10/13 09:10:11;;;;;;;5.63;3.80;;;19.90;1.00;;;;;;8396858;28;20192;-66
2023/10/13 09:14:33;;;;;;;5.60;3.60;;;19.90;1.00;;;;;;8399381;28;20949;-67
2023/10/13 09:18:46;;;;;;;3.40;3.10;;;19.90;1.00;;;;;;8403095;28;20202;-67
2023/10/13 09:23:12;;;;;;;3.70;3.17;;;20.10;1.00;;;;;;8396909;28;20431;-65
2023/10/13 09:27:13;;;;;;;4.77;2.97;;;20.30;1.00;;;;;;8404925;28;20192;-68
2023/10/13 09:31:26;;;;;;;3.83;3.20;;;20.60;1.00;;;;;;8399446;28;20189;-66
2023/10/13 09:35:28;;;;;;;4.87;3.47;;;20.70;1.00;;;;;;8398961;28;20204;-68
2023/10/13 09:39:44;;;;;;;4.93;3.10;;;20.90;1.00;;;;;;8398463;28;20490;-67
2023/10/13 09:43:46;;;;;;;5.57;3.57;;;21.00;1.00;;;;;;8404272;28;20265;-66
2023/10/13 09:47:52;;;;;;;6.30;3.53;;;21.10;1.00;;;;;;8395473;28;20185;-64
2023/10/13 09:52:00;;;;;;;4.20;3.80;;;21.20;1.00;;;;;;8399700;28;20204;-66
2023/10/13 09:56:14;;;;;;;5.83;3.83;;;21.10;1.00;;;;;;8397550;28;20258;-66
2023/10/13 10:04:50;;;;;;;4.20;3.80;;;21.20;1.00;;;;;;8400441;28;20238;-67
2023/10/13 10:08:56;;;;;;;5.50;3.80;;;21.40;1.00;;;;;;8400459;28;20264;-70
2023/10/13 10:13:34;;;;;;;4.70;3.87;;;21.60;1.00;;;;;;8402454;28;20172;-70
2023/10/13 10:17:42;;;;;;;4.43;3.67;;;21.90;1.00;;;;;;8399425;28;20228;-70
2023/10/13 10:21:43;;;;;;;4.83;4.00;;;22.10;1.00;;;;;;8399568;28;20182;-66
2023/10/13 10:25:46;;;;;;;4.43;3.93;;;22.30;1.00;;;;;;8396628;28;20287;-67
2023/10/13 10:29:56;;;;;;;4.30;3.90;;;22.40;1.00;;;;;;8401442;28;20383;-68
2023/10/13 10:33:58;;;;;;;5.17;3.93;;;22.60;1.00;;;;;;8397800;28;20207;-67
2023/10/13 10:42:29;;;;;;;3.80;3.22;;;23.10;1.00;;;;;;8401465;28;20233;-69
2023/10/13 10:46:40;;;;;;;4.00;3.50;;;23.20;1.00;;;;;;8403247;28;20212;-69
2023/10/13 10:50:54;;;;;;;5.50;2.47;;;23.30;1.00;;;;;;8400197;28;20252;-67
2023/10/13 10:54:59;;;;;;;3.08;2.40;;;23.40;1.00;;;;;;8400379;28;20413;-66
2023/10/13 10:58:59;;;;;;;2.45;2.13;;;23.40;1.00;;;;;;8395688;28;20219;-66
2023/10/13 11:03:01;;;;;;;3.22;2.40;;;23.40;1.00;;;;;;8397485;28;20181;-68
2023/10/13 11:07:02;;;;;;;2.42;1.85;;;23.50;1.00;;;;;;8398811;28;20181;-69
2023/10/13 11:11:05;;;;;;;2.38;2.05;;;23.40;1.00;;;;;;8395689;28;20210;-66
2023/10/13 11:15:23;;;;;;;2.15;1.95;;;23.30;1.00;;;;;;8402170;28;20208;-68
2023/10/13 11:19:38;;;;;;;4.82;2.17;;;23.20;1.00;;;;;;8405795;28;20184;-68
2023/10/13 11:23:39;;;;;;;2.75;1.98;;;23.30;1.00;;;;;;8405276;28;20188;-68
2023/10/13 11:31:58;;;;;;;2.10;1.88;;;23.40;1.00;;;;;;8403233;28;20196;-67
2023/10/13 11:36:03;;;;;;;4.10;2.47;;;23.30;1.00;;;;;;8402163;28;20374;-71
2023/10/13 11:40:12;;;;;;;2.60;1.95;;;23.20;1.00;;;;;;8413046;28;20191;-67
2023/10/13 11:44:23;;;;;;;5.53;2.47;;;23.20;1.00;;;;;;8409081;28;20248;-68
2023/10/13 11:48:36;;;;;;;4.85;2.70;;;23.10;1.00;;;;;;8415048;28;20184;-70
2023/10/13 11:52:36;;;;;;;3.80;2.40;;;23.00;1.00;;;;;;8398629;28;20200;-69
2023/10/13 11:56:38;;;;;;;4.17;2.73;;;22.90;1.00;;;;;;8406865;28;20520;-69
2023/10/13 12:00:53;;;;;;;4.53;2.37;;;22.80;1.00;;;;;;8402720;28;20253;-68
2023/10/13 12:04:59;;;;;;;6.00;2.70;;;22.80;1.00;;;;;;8402403;28;20214;-69
2023/10/13 12:13:19;;;;;;;5.07;2.33;;;23.00;1.00;;;;;;8405315;28;20180;-69
2023/10/13 12:17:27;;;;;;;4.03;2.50;;;22.80;1.00;;;;;;8404491;28;20212;-68
2023/10/13 12:21:29;;;;;;;6.63;2.47;;;22.60;1.00;;;;;;8407365;28;20192;-68
2023/10/13 12:25:44;;;;;;;5.07;2.87;;;22.50;1.00;;;;;;8403558;28;20290;-66
2023/10/13 12:29:51;;;;;;;5.93;2.67;;;22.40;1.00;;;;;;8402551;28;20201;-68
2023/10/13 12:33:53;;;;;;;4.53;2.30;;;22.40;1.00;;;;;;8406032;28;20551;-69
2023/10/13 12:38:04;;;;;;;3.93;2.80;;;22.40;1.00;;;;;;8404174;28;20321;-69
2023/10/13 12:51:07;;;;;;;6.80;2.80;;;22.40;1.00;;;;;;8401840;28;20237;-67
2023/10/13 12:55:13;;;;;;;4.20;2.73;;;22.30;1.00;;;;;;8403315;28;20200;-67
2023/10/13 12:59:18;;;;;;;5.03;3.37;;;22.10;1.00;;;;;;8409784;28;20204;-65
2023/10/13 13:03:19;;;;;;;5.53;3.20;;;22.00;1.00;;;;;;8409086;28;20176;-65
2023/10/13 13:07:20;;;;;;;6.10;3.60;;;21.90;1.00;;;;;;8405302;28;20460;-64
2023/10/13 13:11:21;;;;;;;7.53;3.30;;;21.90;1.00;;;;;;8397915;28;20206;-65
2023/10/13 13:15:23;;;;;;;10.17;3.77;;;22.00;1.00;;;;;;8397777;28;20208;-65
2023/10/13 13:19:25;;;;;;;9.20;3.70;;;22.00;1.00;;;;;;8399375;28;20272;-65
2023/10/13 13:23:26;;;;;;;6.77;3.10;;;21.90;1.00;;;;;;8393662;28;20196;-65
2023/10/13 13:27:27;;;;;;;10.50;3.83;;;21.70;1.00;;;;;;8399396;28;20192;-65
2023/10/13 13:31:30;;;;;;;6.03;3.53;;;21.60;1.00;;;;;;8398469;28;20226;-69
2023/10/13 13:35:35;;;;;;;8.20;3.80;;;21.70;1.00;;;;;;8404303;28;20468;-68
2023/10/13 13:39:43;;;;;;;8.17;3.70;;;21.80;1.00;;;;;;8403572;28;20185;-69
2023/10/13 13:43:50;;;;;;;6.20;3.60;;;21.80;1.00;;;;;;8398574;28;20248;-68
2023/10/13 13:47:54;;;;;;;8.60;3.67;;;21.80;1.00;;;;;;8402904;28;20188;-69
2023/10/13 13:51:55;;;;;;;7.77;3.70;;;21.80;1.00;;;;;;8399120;28;20188;-65
2023/10/13 13:55:55;;;;;;;6.10;3.53;;;21.70;1.00;;;;;;8401200;28;20261;-67
2023/10/13 13:59:57;;;;;;;10.73;3.40;;;21.60;1.00;;;;;;8391804;28;20289;-67
2023/10/13 14:04:02;;;;;;;9.07;3.60;;;21.50;1.00;;;;;;8397704;28;20188;-67
2023/10/13 14:08:11;;;;;;;9.70;3.87;;;21.50;1.00;;;;;;8398123;28;20200;-64
2023/10/13 14:12:41;;;;;;;7.87;3.60;;;21.50;1.00;;;;;;8398754;28;20189;-65
2023/10/13 14:16:47;;;;;;;8.63;3.67;;;21.40;1.00;;;;;;8402040;28;20215;-68
2023/10/13 14:20:48;;;;;;;10.37;3.47;;;21.30;1.00;;;;;;8400462;28;20184;-66
2023/10/13 14:24:54;;;;;;;8.67;3.70;;;21.30;1.00;;;;;;8398292;28;20189;-64
2023/10/13 14:29:03;;;;;;;8.77;4.43;;;21.20;1.00;;;;;;8388223;28;20189;-65
2023/10/13 14:33:10;;;;;;;9.83;3.97;;;21.20;1.00;;;;;;8397165;28;20180;-66
2023/10/13 14:37:12;;;;;;;7.00;3.60;;;21.30;1.00;;;;;;8396525;28;20204;-65
2023/10/13 14:41:13;;;;;;;9.30;3.47;;;21.30;1.00;;;;;;8394687;28;20228;-64
2023/10/13 14:45:16;;;;;;;6.90;4.00;;;21.30;1.00;;;;;;8395203;28;20484;-65
2023/10/13 14:49:18;;;;;;;8.67;3.80;;;21.30;1.00;;;;;;8398265;28;20180;-65
2023/10/13 14:53:21;;;;;;;6.03;3.43;;;21.40;1.00;;;;;;8398549;28;20462;-63
2023/10/13 14:57:24;;;;;;;7.90;3.63;;;21.40;1.00;;;;;;8398872;28;20215;-65
2023/10/13 15:01:26;;;;;;;8.13;3.60;;;21.50;1.00;;;;;;8397999;28;20274;-67
2023/10/13 15:05:29;;;;;;;10.80;3.93;;;21.70;1.00;;;;;;8412628;28;20249;-68
2023/10/13 15:09:30;;;;;;;8.77;3.83;;;21.70;1.00;;;;;;8400460;28;20185;-68
2023/10/13 15:13:31;;;;;;;7.77;3.57;;;21.70;1.00;;;;;;8394614;28;20215;-66
2023/10/13 15:17:34;;;;;;;10.27;4.20;;;21.60;1.00;;;;;;8396002;28;20216;-68
2023/10/13 15:21:35;;;;;;;4.83;3.50;;;21.50;1.00;;;;;;8400327;28;20181;-67
2023/10/13 15:25:49;;;;;;;5.80;3.37;;;21.40;1.00;;;;;;8398189;28;20250;-68
2023/10/13 15:29:50;;;;;;;5.77;3.40;;;21.30;1.00;;;;;;8395336;28;20216;-68
2023/10/13 15:33:56;;;;;;;9.20;3.67;;;21.10;1.00;;;;;;8396907;28;20215;-69
2023/10/13 15:37:57;;;;;;;11.73;3.77;;;21.00;1.00;;;;;;8396338;28;20181;-69
2023/10/13 15:41:58;;;;;;;6.50;3.60;;;20.80;1.00;;;;;;8396654;28;20185;-67
2023/10/13 15:46:00;;;;;;;7.47;3.70;;;20.60;1.00;;;;;;8393950;28;20596;-68
2023/10/13 15:50:03;;;;;;;7.53;3.90;;;20.40;1.00;;;;;;8396547;28;20193;-67
2023/10/13 15:54:04;;;;;;;11.70;4.13;;;20.30;1.00;;;;;;8397003;28;20215;-68
2023/10/13 15:58:08;;;;;;;9.27;3.60;;;20.10;1.00;;;;;;8393413;28;20188;-69
2023/10/13 16:02:11;;;;;;;7.00;4.00;;;19.90;1.00;;;;;;8402897;28;20211;-68
2023/10/13 16:06:16;;;;;;;10.13;4.53;;;19.80;1.00;;;;;;8402699;28;20259;-69
2023/10/13 16:10:17;;;;;;;8.40;3.93;;;19.60;1.00;;;;;;8401282;28;20196;-68
2023/10/13 16:14:18;;;;;;;10.60;4.10;;;19.50;1.00;;;;;;8403521;28;20208;-68
2023/10/13 16:18:21;;;;;;;6.97;3.67;;;19.40;1.00;;;;;;8406066;28;20183;-68
2023/10/13 16:22:22;;;;;;;9.27;4.30;;;19.30;1.00;;;;;;8404989;28;20250;-66
2023/10/13 16:26:23;;;;;;;8.43;4.47;;;19.10;1.00;;;;;;8403829;28;20189;-68
2023/10/13 16:30:24;;;;;;;6.13;4.33;;;19.00;1.00;;;;;;8408396;28;20278;-66
2023/10/13 16:34:25;;;;;;;9.43;4.57;;;18.80;1.00;;;;;;8400661;28;20208;-62
2023/10/13 16:38:28;;;;;;;7.47;4.67;;;18.70;1.00;;;;;;8398555;28;20181;-64
2023/10/13 16:42:28;;;;;;;4.80;4.20;;;18.60;1.00;;;;;;8395638;28;20416;-61
2023/10/13 16:46:29;;;;;;;9.73;4.40;;;18.40;1.00;;;;;;8403381;28;20283;-64
2023/10/13 16:50:30;;;;;;;11.97;5.07;;;18.30;1.00;;;;;;8400007;28;20181;-61
2023/10/13 16:54:31;;;;;;;9.57;5.30;;;18.30;1.00;;;;;;8401656;28;20271;-62
2023/10/13 16:58:33;;;;;;;12.27;5.30;;;18.20;1.00;;;;;;8399002;28;20406;-62
2023/10/13 17:02:34;;;;;;;8.13;4.77;;;18.10;1.00;;;;;;8403212;28;20293;-62
2023/10/13 17:06:35;;;;;;;7.77;5.27;;;18.00;1.00;;;;;;8399345;28;20188;-63
2023/10/13 17:10:37;;;;;;;8.87;5.03;;;18.00;1.00;;;;;;8399160;28;20278;-63
2023/10/13 17:14:40;;;;;;;7.83;5.20;;;17.90;1.00;;;;;;8397560;28;20216;-62
2023/10/13 17:18:41;;;;;;;9.40;4.57;;;17.80;1.00;;;;;;8398725;28;20188;-61
2023/10/13 17:22:41;;;;;;;8.97;5.90;;;17.80;1.00;;;;;;8397675;28;20303;-63
2023/10/13 17:26:42;;;;;;;7.27;4.67;;;17.80;1.00;;;;;;8400324;28;20245;-63
2023/10/13 17:30:49;;;;;;;6.97;4.50;;;17.90;1.00;;;;;;8399670;28;20269;-62
2023/10/13 17:34:51;;;;;;;11.00;5.47;;;17.90;1.00;;;;;;8400733;28;20200;-62
2023/10/13 17:38:51;;;;;;;13.13;5.77;;;17.90;1.00;;;;;;8397162;28;20177;-61
2023/10/13 17:42:52;;;;;;;9.00;5.47;;;18.00;1.00;;;;;;8400889;28;20183;-66
2023/10/13 17:46:54;;;;;;;8.07;5.00;;;18.00;1.00;;;;;;8404507;28;20212;-66
2023/10/13 17:50:56;;;;;;;8.47;5.23;;;18.00;1.00;;;;;;8404462;28;20188;-67
2023/10/13 17:55:02;;;;;;;8.50;5.27;;;18.00;1.00;;;;;;8409230;28;20201;-70
2023/10/13 17:59:04;;;;;;;12.53;5.43;;;18.00;1.00;;;;;;8402975;28;20201;-64
2023/10/13 18:03:09;;;;;;;9.23;5.73;;;18.00;1.00;;;;;;8402930;28;20181;-67
2023/10/13 18:07:11;;;;;;;10.30;4.80;;;18.00;1.00;;;;;;8396124;28;20215;-68
2023/10/13 18:11:18;;;;;;;11.97;5.53;;;18.00;1.00;;;;;;8401342;28;20196;-68
2023/10/13 18:15:23;;;;;;;8.27;4.43;;;18.10;1.00;;;;;;8403447;28;20217;-66
2023/10/13 18:19:27;;;;;;;10.10;5.03;;;18.10;1.00;;;;;;8401294;28;20519;-67
2023/10/13 18:23:28;;;;;;;7.53;4.50;;;18.00;1.00;;;;;;8398090;28;20572;-66
2023/10/13 18:27:29;;;;;;;10.30;5.00;;;17.90;1.00;;;;;;8399142;28;20192;-67
2023/10/13 18:31:30;;;;;;;7.33;5.00;;;17.90;1.00;;;;;;8400321;28;20180;-66
2023/10/13 18:35:31;;;;;;;11.00;5.33;;;17.90;1.00;;;;;;8397996;28;20265;-66
2023/10/13 18:39:35;;;;;;;11.93;5.03;;;17.80;1.00;;;;;;8398558;28;20669;-67
2023/10/13 18:43:38;;;;;;;9.37;5.10;;;17.80;1.00;;;;;;8399249;28;20279;-66
2023/10/13 18:47:38;;;;;;;10.77;5.03;;;17.80;1.00;;;;;;8400054;28;20214;-66
2023/10/13 18:51:42;;;;;;;8.77;4.50;;;17.70;1.00;;;;;;8397473;28;20593;-66
2023/10/13 18:55:44;;;;;;;10.70;5.13;;;17.70;1.00;;;;;;8399136;28;20204;-66
2023/10/13 18:59:46;;;;;;;9.30;4.63;;;17.60;1.00;;;;;;8399632;28;20205;-67
2023/10/13 19:03:51;;;;;;;9.40;4.77;;;17.60;1.00;;;;;;8392993;28;20510;-64
2023/10/13 19:07:52;;;;;;;9.90;5.00;;;17.60;1.00;;;;;;8398422;28;20508;-60
2023/10/13 19:11:55;;;;;;;10.30;4.70;;;17.60;1.00;;;;;;8397589;28;20180;-62
2023/10/13 19:16:00;;;;;;;11.93;4.83;;;17.70;1.00;;;;;;8396610;28;21888;-63
2023/10/13 19:20:03;;;;;;;11.27;5.87;;;17.80;1.00;;;;;;8397249;28;20173;-62
2023/10/13 19:24:05;;;;;;;8.43;4.90;;;17.90;1.00;;;;;;8397191;28;20214;-64
2023/10/13 19:28:09;;;;;;;9.73;5.00;;;17.90;1.00;;;;;;8397145;28;20230;-64
2023/10/13 19:32:09;;;;;;;7.70;4.43;;;18.00;1.00;;;;;;8398301;28;20626;-62
2023/10/13 19:36:13;;;;;;;8.40;5.03;;;18.10;1.00;;;;;;8403424;28;20216;-62
2023/10/13 19:40:14;;;;;;;8.23;4.27;;;18.10;1.00;;;;;;8402446;28;20652;-63
2023/10/13 19:44:15;;;;;;;10.00;4.37;;;18.10;1.00;;;;;;8401875;28;20229;-61
2023/10/13 19:48:16;;;;;;;8.73;4.80;;;18.10;1.00;;;;;;8384551;28;20501;-63
2023/10/13 19:52:22;;;;;;;8.37;4.50;;;18.00;1.00;;;;;;8403589;28;20200;-60
2023/10/13 19:56:25;;;;;;;9.90;4.50;;;17.90;1.00;;;;;;8407211;28;20236;-62
2023/10/13 20:00:32;;;;;;;10.77;4.97;;;17.80;1.00;;;;;;8396698;28;20210;-61
2023/10/13 20:04:34;;;;;;;7.40;4.50;;;17.70;1.00;;;;;;8415357;27;20177;-63
2023/10/13 20:08:36;;;;;;;8.43;5.00;;;17.70;1.00;;;;;;8399114;28;20196;-64
2023/10/13 20:12:40;;;;;;;6.93;4.10;;;17.70;1.00;;;;;;8401007;28;20184;-64
2023/10/13 20:16:41;;;;;;;8.50;4.77;;;17.70;1.00;;;;;;8401552;28;20273;-64
2023/10/13 20:20:43;;;;;;;6.67;3.63;;;17.70;1.00;;;;;;8401313;28;20369;-65
2023/10/13 20:24:44;;;;;;;7.50;4.07;;;17.70;1.00;;;;;;8404630;28;20242;-62
2023/10/13 20:28:46;;;;;;;4.43;3.73;;;17.80;1.00;;;;;;8406505;28;20207;-64
2023/10/13 20:32:48;;;;;;;6.33;3.57;;;17.90;1.00;;;;;;8402615;28;20172;-64
2023/10/13 20:36:49;;;;;;;10.77;3.63;;;18.00;1.00;;;;;;8402113;28;20321;-62
2023/10/13 20:41:03;;;;;;;5.43;3.13;;;18.10;1.00;;;;;;8400988;28;20192;-63
2023/10/13 20:45:06;;;;;;;7.50;3.63;;;18.20;1.00;;;;;;8400474;28;20193;-64
2023/10/13 20:49:11;;;;;;;8.83;4.23;;;18.20;1.00;;;;;;8399866;28;20207;-63
2023/10/13 20:53:14;;;;;;;8.27;3.77;;;18.20;1.00;;;;;;8401392;28;20196;-64
2023/10/13 20:57:15;;;;;;;7.47;3.97;;;18.30;1.00;;;;;;8399606;28;20248;-64
2023/10/13 21:01:15;;;;;;;5.87;4.33;;;18.20;1.00;;;;;;8400131;28;20212;-63
2023/10/13 21:05:20;;;;;;;6.73;3.90;;;18.20;1.00;;;;;;8401258;28;20184;-64
2023/10/13 21:09:21;;;;;;;7.40;3.43;;;18.10;1.00;;;;;;8400707;28;20191;-65
2023/10/13 21:13:22;;;;;;;9.67;3.60;;;18.00;1.00;;;;;;8399094;28;20216;-62
2023/10/13 21:17:24;;;;;;;7.13;3.60;;;17.90;1.00;;;;;;8398253;28;20220;-64
2023/10/13 21:21:25;;;;;;;6.43;3.63;;;17.80;1.00;;;;;;8397354;28;20181;-62
2023/10/13 21:25:26;;;;;;;8.13;3.60;;;17.70;1.00;;;;;;8398059;28;20181;-63
2023/10/13 21:29:27;;;;;;;8.90;3.70;;;17.60;1.00;;;;;;8399289;28;20180;-64
2023/10/13 21:33:28;;;;;;;5.47;4.07;;;17.50;1.00;;;;;;8396121;28;20227;-64
2023/10/13 21:37:29;;;;;;;7.40;3.57;;;17.50;1.00;;;;;;8397706;28;20768;-63
2023/10/13 21:41:36;;;;;;;7.33;3.90;;;17.50;1.00;;;;;;8397929;28;20189;-62
2023/10/13 21:45:38;;;;;;;7.80;3.47;;;17.50;1.00;;;;;;8396255;28;20192;-64
2023/10/13 21:49:38;;;;;;;6.67;3.30;;;17.50;1.00;;;;;;8398164;28;20195;-63
2023/10/13 21:53:40;;;;;;;6.70;3.40;;;17.60;1.00;;;;;;8397513;28;20191;-65
2023/10/13 21:57:52;;;;;;;6.83;3.20;;;17.70;1.00;;;;;;8395549;28;20518;-64
2023/10/13 22:01:53;;;;;;;8.73;3.57;;;17.70;1.00;;;;;;8397565;28;20197;-68
2023/10/13 22:05:54;;;;;;;5.17;2.90;;;17.70;1.00;;;;;;8397221;28;20208;-67
2023/10/13 22:09:57;;;;;;;4.80;2.90;;;17.80;1.00;;;;;;8394394;28;20265;-64
2023/10/13 22:13:58;;;;;;;5.43;3.10;;;17.80;1.00;;;;;;8413954;28;20256;-66
2023/10/13 22:18:00;;;;;;;6.03;3.00;;;17.70;1.00;;;;;;8399607;28;20188;-65
2023/10/13 22:22:00;;;;;;;7.67;3.50;;;17.60;1.00;;;;;;8395659;28;20180;-66
2023/10/13 22:26:01;;;;;;;5.87;3.00;;;17.60;1.00;;;;;;8393622;28;20315;-64
2023/10/13 22:30:10;;;;;;;8.33;2.83;;;17.60;1.00;;;;;;8393760;28;20180;-65
2023/10/13 22:34:14;;;;;;;8.43;3.50;;;17.60;1.00;;;;;;8391524;28;20185;-66
2023/10/13 22:38:15;;;;;;;5.37;3.07;;;17.70;1.00;;;;;;8385434;28;20189;-67
2023/10/13 22:42:15;;;;;;;4.80;3.13;;;17.70;1.00;;;;;;8396512;28;20176;-66
2023/10/13 22:46:18;;;;;;;11.67;3.50;;;17.70;1.00;;;;;;8398757;28;20245;-66
2023/10/13 22:50:24;;;;;;;6.53;2.60;;;17.70;1.00;;;;;;8398790;28;20181;-66
2023/10/13 22:54:29;;;;;;;6.67;2.83;;;17.60;1.00;;;;;;8401844;28;20216;-66
2023/10/13 22:58:29;;;;;;;7.90;2.70;;;17.60;1.00;;;;;;8395955;28;20389;-65
2023/10/13 23:02:30;;;;;;;8.67;3.03;;;17.50;1.00;;;;;;8397171;28;20512;-64
2023/10/13 23:06:32;;;;;;;9.70;3.03;;;17.40;1.00;;;;;;8399502;28;20295;-65
2023/10/13 23:10:44;;;;;;;7.90;3.37;;;17.40;1.00;;;;;;8404440;28;20188;-63
2023/10/13 23:14:50;;;;;;;6.53;3.53;;;17.40;1.00;;;;;;8419670;28;20264;-66
2023/10/13 23:18:54;;;;;;;5.17;3.10;;;17.40;1.00;;;;;;8403247;28;20219;-67
2023/10/13 23:22:55;;;;;;;5.63;3.10;;;17.40;1.00;;;;;;8402240;28;20188;-66
2023/10/13 23:26:55;;;;;;;5.73;3.07;;;17.30;1.00;;;;;;8405318;28;20190;-65
2023/10/13 23:30:57;;;;;;;7.20;2.97;;;17.30;1.00;;;;;;8405448;28;20199;-65
2023/10/13 23:34:58;;;;;;;5.47;2.83;;;17.20;1.00;;;;;;8403392;28;20253;-65
2023/10/13 23:39:32;;;;;;;6.73;2.73;;;17.20;1.00;;;;;;8404434;28;20645;-67
2023/10/13 23:43:24;;;;;;;4.97;3.10;;;17.10;1.00;;;;;;8403436;28;20207;-65
2023/10/13 23:47:27;;;;;;;9.77;3.17;;;17.00;1.00;;;;;;8409538;28;20226;-65
2023/10/13 23:51:28;;;;;;;5.90;2.77;;;17.00;1.00;;;;;;8403211;28;20180;-64
2023/10/13 23:55:32;;;;;;;6.20;2.70;;;16.90;1.00;;;;;;8402283;28;20216;-67